ENGM

Oslo Gardermoen Airport

Oslo, Norway
METAR ENGM 250050Z 00000KT CAVOK 12/05 Q1027
Observed Flight Rules
May-25 @ 00:50 UTC (29 minutes ago) Visual Flight Rules
Visibility Clouds
10,000+ meters
  • Clear skies
Temperatures Readings
Current 12°C / 54°F
Dewpoint 5°C / 41°F
Humidity 63%
Altimeter 30.32" Hg
Pressure 1027 hPa
Elevation 204
METAR ENGM 250050Z 00000KT CAVOK 12/05 Q1027
Observed Flight Rules
May-25 @ 00:50 UTC
(29 minutes ago)
VFR
Clouds
  • Clear skies
Temperature Dewpoint
12°C / 54°F 5°C / 41°F
Humidity Altimeter Pressure
63% 30.32" Hg 1027 hPa